sensor_id;sensor_type;location;lat;lon;timestamp;temperature;humidity
35613;DHT22;22054;51.646;7.078;2023-03-01T00:02:03;-0.80;1.00
35613;DHT22;22054;51.646;7.078;2023-03-01T00:04:30;-0.80;1.00
35613;DHT22;22054;51.646;7.078;2023-03-01T00:06:56;-0.80;1.00
35613;DHT22;22054;51.646;7.078;2023-03-01T00:09:22;-0.80;1.00
35613;DHT22;22054;51.646;7.078;2023-03-01T00:11:48;-0.80;1.00
35613;DHT22;22054;51.646;7.078;2023-03-01T00:14:13;-0.80;1.00
35613;DHT22;22054;51.646;7.078;2023-03-01T00:16:42;-0.80;1.00
35613;DHT22;22054;51.646;7.078;2023-03-01T00:19:14;-0.90;1.00
35613;DHT22;22054;51.646;7.078;2023-03-01T00:21:43;-0.90;1.00
35613;DHT22;22054;51.646;7.078;2023-03-01T00:24:10;-0.90;1.00
35613;DHT22;22054;51.646;7.078;2023-03-01T00:26:36;-0.80;1.00
35613;DHT22;22054;51.646;7.078;2023-03-01T00:29:03;-0.90;1.00
35613;DHT22;22054;51.646;7.078;2023-03-01T00:31:31;-0.90;1.00
35613;DHT22;22054;51.646;7.078;2023-03-01T00:33:59;-0.80;1.00
35613;DHT22;22054;51.646;7.078;2023-03-01T00:36:29;-0.90;1.00
35613;DHT22;22054;51.646;7.078;2023-03-01T00:38:57;-0.70;1.00
35613;DHT22;22054;51.646;7.078;2023-03-01T00:41:23;-1.00;1.00
35613;DHT22;22054;51.646;7.078;2023-03-01T00:43:52;-1.00;1.00
35613;DHT22;22054;51.646;7.078;2023-03-01T00:46:20;-1.00;1.00
35613;DHT22;22054;51.646;7.078;2023-03-01T00:48:49;-1.00;1.00
35613;DHT22;22054;51.646;7.078;2023-03-01T00:51:17;-1.00;1.00
35613;DHT22;22054;51.646;7.078;2023-03-01T00:53:45;-1.10;1.00
35613;DHT22;22054;51.646;7.078;2023-03-01T00:56:13;-1.10;1.00
35613;DHT22;22054;51.646;7.078;2023-03-01T00:58:39;-1.10;1.00
35613;DHT22;22054;51.646;7.078;2023-03-01T01:01:15;-1.10;1.00
35613;DHT22;22054;51.646;7.078;2023-03-01T01:03:53;-1.10;1.00
35613;DHT22;22054;51.646;7.078;2023-03-01T01:06:22;-1.20;1.00
35613;DHT22;22054;51.646;7.078;2023-03-01T01:08:54;-1.20;1.00
35613;DHT22;22054;51.646;7.078;2023-03-01T01:11:22;-1.20;1.00
35613;DHT22;22054;51.646;7.078;2023-03-01T01:13:49;-1.20;1.00
35613;DHT22;22054;51.646;7.078;2023-03-01T01:16:20;-1.20;1.00
35613;DHT22;22054;51.646;7.078;2023-03-01T01:18:47;-1.20;1.00
35613;DHT22;22054;51.646;7.078;2023-03-01T01:21:15;-1.30;1.00
35613;DHT22;22054;51.646;7.078;2023-03-01T01:23:43;-1.30;1.00
35613;DHT22;22054;51.646;7.078;2023-03-01T01:26:18;-1.30;1.00
35613;DHT22;22054;51.646;7.078;2023-03-01T01:28:45;-1.30;1.00
35613;DHT22;22054;51.646;7.078;2023-03-01T01:31:12;-1.40;1.00
35613;DHT22;22054;51.646;7.078;2023-03-01T01:33:38;-1.40;1.00
35613;DHT22;22054;51.646;7.078;2023-03-01T01:36:05;-1.50;1.00
35613;DHT22;22054;51.646;7.078;2023-03-01T01:38:32;-1.50;3.90
35613;DHT22;22054;51.646;7.078;2023-03-01T01:40:59;-1.50;2.40
35613;DHT22;22054;51.646;7.078;2023-03-01T01:43:31;-1.50;8.50
35613;DHT22;22054;51.646;7.078;2023-03-01T01:46:14;-1.50;21.70
35613;DHT22;22054;51.646;7.078;2023-03-01T01:48:46;-1.50;16.80
35613;DHT22;22054;51.646;7.078;2023-03-01T01:51:19;-1.50;13.00
35613;DHT22;22054;51.646;7.078;2023-03-01T01:53:54;-1.40;17.40
35613;DHT22;22054;51.646;7.078;2023-03-01T01:56:24;-1.50;11.90
35613;DHT22;22054;51.646;7.078;2023-03-01T01:58:51;-1.50;8.10
35613;DHT22;22054;51.646;7.078;2023-03-01T02:01:37;-1.50;3.70
35613;DHT22;22054;51.646;7.078;2023-03-01T02:04:06;-1.50;5.00
35613;DHT22;22054;51.646;7.078;2023-03-01T02:06:45;-1.50;4.30
35613;DHT22;22054;51.646;7.078;2023-03-01T02:09:17;-1.60;3.30
35613;DHT22;22054;51.646;7.078;2023-03-01T02:11:47;-1.60;8.40
35613;DHT22;22054;51.646;7.078;2023-03-01T02:14:14;-1.60;13.90
35613;DHT22;22054;51.646;7.078;2023-03-01T02:16:41;-1.60;13.70
35613;DHT22;22054;51.646;7.078;2023-03-01T02:19:12;-1.60;21.90
35613;DHT22;22054;51.646;7.078;2023-03-01T02:21:57;-1.60;20.10
35613;DHT22;22054;51.646;7.078;2023-03-01T02:24:59;-1.60;22.90
35613;DHT22;22054;51.646;7.078;2023-03-01T02:27:38;-1.70;22.70
35613;DHT22;22054;51.646;7.078;2023-03-01T02:30:11;-1.70;16.90
35613;DHT22;22054;51.646;7.078;2023-03-01T02:32:41;-1.70;17.70
35613;DHT22;22054;51.646;7.078;2023-03-01T02:35:14;-1.70;19.30
35613;DHT22;22054;51.646;7.078;2023-03-01T02:37:42;-1.80;22.30
35613;DHT22;22054;51.646;7.078;2023-03-01T02:40:12;-1.70;24.20
35613;DHT22;22054;51.646;7.078;2023-03-01T02:42:57;-1.80;23.50
35613;DHT22;22054;51.646;7.078;2023-03-01T02:45:25;-1.80;28.20
35613;DHT22;22054;51.646;7.078;2023-03-01T02:47:56;-1.90;40.00
35613;DHT22;22054;51.646;7.078;2023-03-01T02:55:41;-1.90;52.00
35613;DHT22;22054;51.646;7.078;2023-03-01T02:58:07;-2.00;55.00
35613;DHT22;22054;51.646;7.078;2023-03-01T03:00:39;-2.00;64.50
35613;DHT22;22054;51.646;7.078;2023-03-01T03:03:13;-2.00;67.50
35613;DHT22;22054;51.646;7.078;2023-03-01T03:05:40;-2.00;81.80
35613;DHT22;22054;51.646;7.078;2023-03-01T03:08:06;-2.10;87.30
35613;DHT22;22054;51.646;7.078;2023-03-01T03:10:37;-2.10;88.40
35613;DHT22;22054;51.646;7.078;2023-03-01T03:13:10;-2.10;87.80
35613;DHT22;22054;51.646;7.078;2023-03-01T03:15:41;-2.10;91.40
35613;DHT22;22054;51.646;7.078;2023-03-01T03:18:11;-2.10;94.30
35613;DHT22;22054;51.646;7.078;2023-03-01T03:20:39;-2.10;91.10
35613;DHT22;22054;51.646;7.078;2023-03-01T03:23:07;-2.10;93.00
35613;DHT22;22054;51.646;7.078;2023-03-01T03:25:36;-2.10;93.20
35613;DHT22;22054;51.646;7.078;2023-03-01T03:28:05;-2.20;91.90
35613;DHT22;22054;51.646;7.078;2023-03-01T03:30:38;-2.10;95.60
35613;DHT22;22054;51.646;7.078;2023-03-01T03:33:05;-2.10;91.20
35613;DHT22;22054;51.646;7.078;2023-03-01T03:35:34;-2.10;91.00
35613;DHT22;22054;51.646;7.078;2023-03-01T03:38:07;-2.20;85.10
35613;DHT22;22054;51.646;7.078;2023-03-01T03:40:42;-2.20;92.20
35613;DHT22;22054;51.646;7.078;2023-03-01T03:43:16;-2.30;95.70
35613;DHT22;22054;51.646;7.078;2023-03-01T03:45:49;-2.20;97.90
35613;DHT22;22054;51.646;7.078;2023-03-01T03:48:16;-2.30;99.90
35613;DHT22;22054;51.646;7.078;2023-03-01T03:50:48;-2.30;99.90
35613;DHT22;22054;51.646;7.078;2023-03-01T03:53:15;-2.30;99.90
35613;DHT22;22054;51.646;7.078;2023-03-01T03:55:41;-2.40;99.90
35613;DHT22;22054;51.646;7.078;2023-03-01T03:58:09;-2.30;99.90
35613;DHT22;22054;51.646;7.078;2023-03-01T04:00:40;-2.40;99.90
35613;DHT22;22054;51.646;7.078;2023-03-01T04:03:07;-2.40;99.90
35613;DHT22;22054;51.646;7.078;2023-03-01T04:05:34;-2.40;99.90
35613;DHT22;22054;51.646;7.078;2023-03-01T04:08:01;-2.40;99.90
35613;DHT22;22054;51.646;7.078;2023-03-01T04:10:32;-2.40;99.90
35613;DHT22;22054;51.646;7.078;2023-03-01T04:13:03;-2.40;99.90
35613;DHT22;22054;51.646;7.078;2023-03-01T04:15:33;-2.50;99.90
35613;DHT22;22054;51.646;7.078;2023-03-01T04:18:01;-2.40;99.90
35613;DHT22;22054;51.646;7.078;2023-03-01T04:20:30;-2.40;99.90
35613;DHT22;22054;51.646;7.078;2023-03-01T04:23:01;-2.40;99.90
35613;DHT22;22054;51.646;7.078;2023-03-01T04:25:52;-2.50;99.90
35613;DHT22;22054;51.646;7.078;2023-03-01T04:28:29;-2.40;99.90
35613;DHT22;22054;51.646;7.078;2023-03-01T04:31:03;-2.50;99.90
35613;DHT22;22054;51.646;7.078;2023-03-01T04:33:42;-2.40;99.90
35613;DHT22;22054;51.646;7.078;2023-03-01T04:36:10;-2.40;99.90
35613;DHT22;22054;51.646;7.078;2023-03-01T04:38:37;-2.40;99.90
35613;DHT22;22054;51.646;7.078;2023-03-01T04:41:07;-2.40;99.90
35613;DHT22;22054;51.646;7.078;2023-03-01T04:43:34;-2.40;99.90
35613;DHT22;22054;51.646;7.078;2023-03-01T04:46:05;-2.40;99.90
35613;DHT22;22054;51.646;7.078;2023-03-01T04:48:37;-2.50;99.90
35613;DHT22;22054;51.646;7.078;2023-03-01T04:51:04;-2.50;99.90
35613;DHT22;22054;51.646;7.078;2023-03-01T04:53:32;-2.50;99.90
35613;DHT22;22054;51.646;7.078;2023-03-01T04:55:58;-2.50;99.90
35613;DHT22;22054;51.646;7.078;2023-03-01T04:58:27;-2.50;99.90
35613;DHT22;22054;51.646;7.078;2023-03-01T05:00:54;-2.50;99.90
35613;DHT22;22054;51.646;7.078;2023-03-01T05:03:21;-2.50;99.90
35613;DHT22;22054;51.646;7.078;2023-03-01T05:05:49;-2.40;99.90
35613;DHT22;22054;51.646;7.078;2023-03-01T05:08:16;-2.50;99.90
35613;DHT22;22054;51.646;7.078;2023-03-01T05:10:52;-2.50;99.90
35613;DHT22;22054;51.646;7.078;2023-03-01T05:13:19;-2.60;99.90
35613;DHT22;22054;51.646;7.078;2023-03-01T05:16:00;-2.60;99.90
35613;DHT22;22054;51.646;7.078;2023-03-01T05:18:29;-2.60;99.90
35613;DHT22;22054;51.646;7.078;2023-03-01T05:21:05;-2.60;99.90
35613;DHT22;22054;51.646;7.078;2023-03-01T05:23:33;-2.70;99.90
35613;DHT22;22054;51.646;7.078;2023-03-01T05:26:00;-2.70;99.90
35613;DHT22;22054;51.646;7.078;2023-03-01T05:28:28;-2.70;99.90
35613;DHT22;22054;51.646;7.078;2023-03-01T05:30:54;-2.70;99.90
35613;DHT22;22054;51.646;7.078;2023-03-01T05:33:20;-2.70;99.90
35613;DHT22;22054;51.646;7.078;2023-03-01T05:35:48;-2.80;99.90
35613;DHT22;22054;51.646;7.078;2023-03-01T05:38:15;-2.80;99.90
35613;DHT22;22054;51.646;7.078;2023-03-01T05:40:42;-2.80;99.90
35613;DHT22;22054;51.646;7.078;2023-03-01T05:43:10;-2.80;99.90
35613;DHT22;22054;51.646;7.078;2023-03-01T05:45:39;-2.80;99.90
35613;DHT22;22054;51.646;7.078;2023-03-01T05:48:06;-2.80;99.90
35613;DHT22;22054;51.646;7.078;2023-03-01T05:50:36;-2.80;99.90
35613;DHT22;22054;51.646;7.078;2023-03-01T05:53:11;-2.80;99.90
35613;DHT22;22054;51.646;7.078;2023-03-01T05:55:42;-2.70;99.90
35613;DHT22;22054;51.646;7.078;2023-03-01T05:58:11;-2.70;99.90
35613;DHT22;22054;51.646;7.078;2023-03-01T06:00:39;-2.60;99.90
35613;DHT22;22054;51.646;7.078;2023-03-01T06:03:06;-2.60;99.90
35613;DHT22;22054;51.646;7.078;2023-03-01T06:05:32;-2.60;99.90
35613;DHT22;22054;51.646;7.078;2023-03-01T06:07:59;-2.60;99.90
35613;DHT22;22054;51.646;7.078;2023-03-01T06:10:25;-2.50;99.90
35613;DHT22;22054;51.646;7.078;2023-03-01T06:12:51;-2.30;99.90
35613;DHT22;22054;51.646;7.078;2023-03-01T06:15:17;-2.50;99.90
35613;DHT22;22054;51.646;7.078;2023-03-01T06:17:45;-2.50;99.90
35613;DHT22;22054;51.646;7.078;2023-03-01T06:20:22;-2.60;99.90
35613;DHT22;22054;51.646;7.078;2023-03-01T06:22:49;-2.60;99.90
35613;DHT22;22054;51.646;7.078;2023-03-01T06:25:18;-2.60;99.90
35613;DHT22;22054;51.646;7.078;2023-03-01T06:27:46;-2.60;99.90
35613;DHT22;22054;51.646;7.078;2023-03-01T06:30:15;-2.70;99.90
35613;DHT22;22054;51.646;7.078;2023-03-01T06:32:43;-2.70;99.90
35613;DHT22;22054;51.646;7.078;2023-03-01T06:35:11;-2.60;99.90
35613;DHT22;22054;51.646;7.078;2023-03-01T06:37:38;-2.30;99.90
35613;DHT22;22054;51.646;7.078;2023-03-01T06:40:05;-2.60;99.90
35613;DHT22;22054;51.646;7.078;2023-03-01T06:42:34;-2.40;99.90
35613;DHT22;22054;51.646;7.078;2023-03-01T06:45:01;-2.40;99.90
35613;DHT22;22054;51.646;7.078;2023-03-01T06:47:27;-2.30;99.90
35613;DHT22;22054;51.646;7.078;2023-03-01T06:49:53;-2.00;99.90
35613;DHT22;22054;51.646;7.078;2023-03-01T06:52:19;-2.00;99.90
35613;DHT22;22054;51.646;7.078;2023-03-01T06:54:45;-1.80;94.60
35613;DHT22;22054;51.646;7.078;2023-03-01T06:57:11;-1.70;51.70
35613;DHT22;22054;51.646;7.078;2023-03-01T06:59:36;-1.60;18.00
35613;DHT22;22054;51.646;7.078;2023-03-01T07:02:02;-1.50;1.00
35613;DHT22;22054;51.646;7.078;2023-03-01T07:04:28;-1.50;1.00
35613;DHT22;22054;51.646;7.078;2023-03-01T07:06:54;-1.40;1.00
35613;DHT22;22054;51.646;7.078;2023-03-01T07:09:22;-1.30;1.00
35613;DHT22;22054;51.646;7.078;2023-03-01T07:11:49;-1.20;1.00
35613;DHT22;22054;51.646;7.078;2023-03-01T07:14:17;-1.20;1.00
35613;DHT22;22054;51.646;7.078;2023-03-01T07:16:53;-1.00;1.00
35613;DHT22;22054;51.646;7.078;2023-03-01T07:19:19;-0.90;1.00
35613;DHT22;22054;51.646;7.078;2023-03-01T07:21:46;-0.80;1.00
35613;DHT22;22054;51.646;7.078;2023-03-01T07:24:12;-0.80;1.00
35613;DHT22;22054;51.646;7.078;2023-03-01T07:26:37;-0.70;1.00
35613;DHT22;22054;51.646;7.078;2023-03-01T07:29:05;-0.70;1.00
35613;DHT22;22054;51.646;7.078;2023-03-01T07:31:32;-0.60;1.00
35613;DHT22;22054;51.646;7.078;2023-03-01T07:33:58;-0.50;1.00
35613;DHT22;22054;51.646;7.078;2023-03-01T07:36:24;-0.40;1.00
35613;DHT22;22054;51.646;7.078;2023-03-01T07:38:50;-0.40;1.00
35613;DHT22;22054;51.646;7.078;2023-03-01T07:41:16;-0.20;1.00
35613;DHT22;22054;51.646;7.078;2023-03-01T07:43:42;-0.20;1.00
35613;DHT22;22054;51.646;7.078;2023-03-01T07:46:08;-0.10;1.00
35613;DHT22;22054;51.646;7.078;2023-03-01T07:48:34;0.00;1.00
35613;DHT22;22054;51.646;7.078;2023-03-01T07:51:00;0.20;1.00
35613;DHT22;22054;51.646;7.078;2023-03-01T07:53:26;0.30;1.00
35613;DHT22;22054;51.646;7.078;2023-03-01T07:56:07;0.40;1.00
35613;DHT22;22054;51.646;7.078;2023-03-01T07:58:35;0.50;1.00
35613;DHT22;22054;51.646;7.078;2023-03-01T08:01:07;0.60;1.00
35613;DHT22;22054;51.646;7.078;2023-03-01T08:03:34;0.70;1.00
35613;DHT22;22054;51.646;7.078;2023-03-01T08:06:02;0.70;1.00
35613;DHT22;22054;51.646;7.078;2023-03-01T08:08:28;0.90;1.00
35613;DHT22;22054;51.646;7.078;2023-03-01T08:10:59;1.20;1.00
35613;DHT22;22054;51.646;7.078;2023-03-01T08:13:26;1.10;1.00
35613;DHT22;22054;51.646;7.078;2023-03-01T08:15:52;1.00;99.90
35613;DHT22;22054;51.646;7.078;2023-03-01T08:18:19;1.20;99.90
35613;DHT22;22054;51.646;7.078;2023-03-01T08:20:45;1.30;99.90
35613;DHT22;22054;51.646;7.078;2023-03-01T08:23:12;1.40;99.90
35613;DHT22;22054;51.646;7.078;2023-03-01T08:25:38;1.40;99.90
35613;DHT22;22054;51.646;7.078;2023-03-01T08:28:04;1.50;99.90
35613;DHT22;22054;51.646;7.078;2023-03-01T08:30:30;1.60;99.90
35613;DHT22;22054;51.646;7.078;2023-03-01T08:32:56;1.70;99.90
35613;DHT22;22054;51.646;7.078;2023-03-01T08:35:22;1.80;1.00
35613;DHT22;22054;51.646;7.078;2023-03-01T08:37:48;1.90;1.00
35613;DHT22;22054;51.646;7.078;2023-03-01T08:40:14;2.00;1.00
35613;DHT22;22054;51.646;7.078;2023-03-01T08:42:41;2.10;1.00
35613;DHT22;22054;51.646;7.078;2023-03-01T08:45:09;2.10;1.00
35613;DHT22;22054;51.646;7.078;2023-03-01T08:47:35;2.30;99.90
35613;DHT22;22054;51.646;7.078;2023-03-01T08:50:01;2.30;99.90
35613;DHT22;22054;51.646;7.078;2023-03-01T08:52:27;2.40;99.90
35613;DHT22;22054;51.646;7.078;2023-03-01T08:54:53;2.50;99.90
35613;DHT22;22054;51.646;7.078;2023-03-01T08:57:19;2.60;1.00
35613;DHT22;22054;51.646;7.078;2023-03-01T08:59:45;2.80;1.00
35613;DHT22;22054;51.646;7.078;2023-03-01T09:02:16;2.90;1.00
35613;DHT22;22054;51.646;7.078;2023-03-01T09:04:42;3.00;1.00
35613;DHT22;22054;51.646;7.078;2023-03-01T09:07:10;3.20;1.00
35613;DHT22;22054;51.646;7.078;2023-03-01T09:09:36;3.30;99.90
35613;DHT22;22054;51.646;7.078;2023-03-01T09:12:03;3.40;99.90
35613;DHT22;22054;51.646;7.078;2023-03-01T09:14:29;3.50;1.00
35613;DHT22;22054;51.646;7.078;2023-03-01T09:16:54;3.70;1.00
35613;DHT22;22054;51.646;7.078;2023-03-01T09:19:20;3.70;1.00
35613;DHT22;22054;51.646;7.078;2023-03-01T09:21:46;3.90;99.90
35613;DHT22;22054;51.646;7.078;2023-03-01T09:24:20;3.90;1.00
35613;DHT22;22054;51.646;7.078;2023-03-01T09:26:46;4.10;99.90
35613;DHT22;22054;51.646;7.078;2023-03-01T09:29:13;4.20;99.90
35613;DHT22;22054;51.646;7.078;2023-03-01T09:31:40;4.30;5.40
35613;DHT22;22054;51.646;7.078;2023-03-01T09:34:07;4.40;1.00
35613;DHT22;22054;51.646;7.078;2023-03-01T09:36:33;4.50;1.00
35613;DHT22;22054;51.646;7.078;2023-03-01T09:38:59;4.60;1.00
35613;DHT22;22054;51.646;7.078;2023-03-01T09:44:47;4.80;99.90
35613;DHT22;22054;51.646;7.078;2023-03-01T09:47:18;5.00;1.00
35613;DHT22;22054;51.646;7.078;2023-03-01T09:50:04;5.20;99.90
35613;DHT22;22054;51.646;7.078;2023-03-01T09:55:11;6.10;1.00
35613;DHT22;22054;51.646;7.078;2023-03-01T09:57:50;7.10;1.00
35613;DHT22;22054;51.646;7.078;2023-03-01T10:00:43;8.40;1.00
35613;DHT22;22054;51.646;7.078;2023-03-01T10:03:16;9.70;96.50
35613;DHT22;22054;51.646;7.078;2023-03-01T10:06:14;10.50;91.00
35613;DHT22;22054;51.646;7.078;2023-03-01T10:09:09;10.60;86.50
35613;DHT22;22054;51.646;7.078;2023-03-01T10:11:39;10.60;84.10
35613;DHT22;22054;51.646;7.078;2023-03-01T10:19:51;12.20;76.50
35613;DHT22;22054;51.646;7.078;2023-03-01T10:22:30;12.90;69.20
35613;DHT22;22054;51.646;7.078;2023-03-01T10:25:02;13.20;67.80
35613;DHT22;22054;51.646;7.078;2023-03-01T10:27:41;13.70;63.90
35613;DHT22;22054;51.646;7.078;2023-03-01T10:30:34;14.10;60.90
35613;DHT22;22054;51.646;7.078;2023-03-01T10:33:14;14.40;58.00
35613;DHT22;22054;51.646;7.078;2023-03-01T10:35:43;14.60;55.80
35613;DHT22;22054;51.646;7.078;2023-03-01T10:38:11;15.00;55.20
35613;DHT22;22054;51.646;7.078;2023-03-01T10:40:55;14.90;55.00
35613;DHT22;22054;51.646;7.078;2023-03-01T10:43:47;15.60;54.10
35613;DHT22;22054;51.646;7.078;2023-03-01T10:49:21;15.20;52.70
35613;DHT22;22054;51.646;7.078;2023-03-01T10:51:50;15.70;53.50
35613;DHT22;22054;51.646;7.078;2023-03-01T10:54:28;15.90;51.90
35613;DHT22;22054;51.646;7.078;2023-03-01T10:56:57;15.70;51.40
35613;DHT22;22054;51.646;7.078;2023-03-01T10:59:37;15.90;50.50
35613;DHT22;22054;51.646;7.078;2023-03-01T11:02:30;15.70;51.90
35613;DHT22;22054;51.646;7.078;2023-03-01T11:08:01;16.30;50.30
35613;DHT22;22054;51.646;7.078;2023-03-01T11:10:35;17.10;49.20
35613;DHT22;22054;51.646;7.078;2023-03-01T11:13:17;17.10;47.20
35613;DHT22;22054;51.646;7.078;2023-03-01T11:15:59;17.20;46.70
35613;DHT22;22054;51.646;7.078;2023-03-01T11:18:30;17.20;47.20
35613;DHT22;22054;51.646;7.078;2023-03-01T11:20:58;16.60;47.30
35613;DHT22;22054;51.646;7.078;2023-03-01T11:23:31;16.70;47.50
35613;DHT22;22054;51.646;7.078;2023-03-01T11:26:05;16.70;47.10
35613;DHT22;22054;51.646;7.078;2023-03-01T11:28:35;16.90;46.90
35613;DHT22;22054;51.646;7.078;2023-03-01T11:31:06;16.50;46.60
35613;DHT22;22054;51.646;7.078;2023-03-01T11:34:11;16.50;47.10
35613;DHT22;22054;51.646;7.078;2023-03-01T11:36:55;16.40;46.90
35613;DHT22;22054;51.646;7.078;2023-03-01T11:39:46;17.30;46.80
35613;DHT22;22054;51.646;7.078;2023-03-01T11:42:20;18.80;44.50
35613;DHT22;22054;51.646;7.078;2023-03-01T11:44:55;20.30;42.60
35613;DHT22;22054;51.646;7.078;2023-03-01T11:51:12;21.40;38.90
35613;DHT22;22054;51.646;7.078;2023-03-01T12:19:45;22.60;33.80
35613;DHT22;22054;51.646;7.078;2023-03-01T12:25:25;22.20;34.90
35613;DHT22;22054;51.646;7.078;2023-03-01T12:28:15;22.60;33.20
35613;DHT22;22054;51.646;7.078;2023-03-01T12:37:21;23.60;32.20
35613;DHT22;22054;51.646;7.078;2023-03-01T12:43:15;23.70;31.20
35613;DHT22;22054;51.646;7.078;2023-03-01T12:48:59;23.60;32.20
35613;DHT22;22054;51.646;7.078;2023-03-01T12:51:36;23.60;31.40
35613;DHT22;22054;51.646;7.078;2023-03-01T12:54:27;23.40;31.50
35613;DHT22;22054;51.646;7.078;2023-03-01T12:57:06;23.30;32.30
35613;DHT22;22054;51.646;7.078;2023-03-01T13:06:08;22.00;32.60
35613;DHT22;22054;51.646;7.078;2023-03-01T13:09:10;21.80;33.90
35613;DHT22;22054;51.646;7.078;2023-03-01T13:11:41;22.30;33.20
35613;DHT22;22054;51.646;7.078;2023-03-01T13:16:47;22.30;32.80
35613;DHT22;22054;51.646;7.078;2023-03-01T13:19:24;22.80;33.10
35613;DHT22;22054;51.646;7.078;2023-03-01T13:21:53;23.20;32.10
35613;DHT22;22054;51.646;7.078;2023-03-01T13:29:47;23.90;31.40
35613;DHT22;22054;51.646;7.078;2023-03-01T13:32:29;23.80;31.20
35613;DHT22;22054;51.646;7.078;2023-03-01T13:37:44;24.20;31.40
35613;DHT22;22054;51.646;7.078;2023-03-01T13:42:49;24.20;30.30
35613;DHT22;22054;51.646;7.078;2023-03-01T13:45:39;23.50;29.80
35613;DHT22;22054;51.646;7.078;2023-03-01T13:48:18;22.70;31.10
35613;DHT22;22054;51.646;7.078;2023-03-01T13:50:51;21.50;31.70
35613;DHT22;22054;51.646;7.078;2023-03-01T13:53:24;22.40;32.50
35613;DHT22;22054;51.646;7.078;2023-03-01T13:55:55;23.50;30.70
35613;DHT22;22054;51.646;7.078;2023-03-01T14:01:01;23.30;30.20
35613;DHT22;22054;51.646;7.078;2023-03-01T14:03:31;23.10;30.90
35613;DHT22;22054;51.646;7.078;2023-03-01T14:06:23;23.60;30.50
35613;DHT22;22054;51.646;7.078;2023-03-01T14:09:10;24.30;29.60
35613;DHT22;22054;51.646;7.078;2023-03-01T14:17:09;22.80;30.60
35613;DHT22;22054;51.646;7.078;2023-03-01T14:19:58;23.10;31.00
35613;DHT22;22054;51.646;7.078;2023-03-01T14:25:01;22.50;29.80
35613;DHT22;22054;51.646;7.078;2023-03-01T14:27:39;22.00;30.10
35613;DHT22;22054;51.646;7.078;2023-03-01T14:30:23;20.10;31.90
35613;DHT22;22054;51.646;7.078;2023-03-01T14:32:58;19.70;33.40
35613;DHT22;22054;51.646;7.078;2023-03-01T14:35:33;19.50;33.70
35613;DHT22;22054;51.646;7.078;2023-03-01T14:38:00;20.10;35.20
35613;DHT22;22054;51.646;7.078;2023-03-01T14:40:31;20.50;33.50
35613;DHT22;22054;51.646;7.078;2023-03-01T14:43:04;20.70;33.20
35613;DHT22;22054;51.646;7.078;2023-03-01T14:45:35;20.40;32.90
35613;DHT22;22054;51.646;7.078;2023-03-01T14:48:03;20.10;34.70
35613;DHT22;22054;51.646;7.078;2023-03-01T14:50:35;19.40;34.70
35613;DHT22;22054;51.646;7.078;2023-03-01T14:53:06;19.50;34.60
35613;DHT22;22054;51.646;7.078;2023-03-01T14:55:42;20.00;34.80
35613;DHT22;22054;51.646;7.078;2023-03-01T14:58:14;20.40;33.90
35613;DHT22;22054;51.646;7.078;2023-03-01T15:00:55;20.50;34.70
35613;DHT22;22054;51.646;7.078;2023-03-01T15:03:33;20.50;33.10
35613;DHT22;22054;51.646;7.078;2023-03-01T15:06:06;20.70;34.40
35613;DHT22;22054;51.646;7.078;2023-03-01T15:08:33;21.60;33.90
35613;DHT22;22054;51.646;7.078;2023-03-01T15:11:21;21.80;31.90
35613;DHT22;22054;51.646;7.078;2023-03-01T15:13:53;22.20;32.30
35613;DHT22;22054;51.646;7.078;2023-03-01T15:16:26;22.10;32.10
35613;DHT22;22054;51.646;7.078;2023-03-01T15:19:00;22.00;32.60
35613;DHT22;22054;51.646;7.078;2023-03-01T15:21:32;21.00;32.70
35613;DHT22;22054;51.646;7.078;2023-03-01T15:27:00;18.50;35.40
35613;DHT22;22054;51.646;7.078;2023-03-01T15:29:33;16.20;39.10
35613;DHT22;22054;51.646;7.078;2023-03-01T15:32:28;14.40;43.10
35613;DHT22;22054;51.646;7.078;2023-03-01T15:34:57;12.70;46.80
35613;DHT22;22054;51.646;7.078;2023-03-01T15:40:17;11.20;50.60
35613;DHT22;22054;51.646;7.078;2023-03-01T15:42:43;10.90;51.20
35613;DHT22;22054;51.646;7.078;2023-03-01T15:47:56;12.10;50.20
35613;DHT22;22054;51.646;7.078;2023-03-01T15:50:29;13.30;48.40
35613;DHT22;22054;51.646;7.078;2023-03-01T15:53:00;13.80;46.00
35613;DHT22;22054;51.646;7.078;2023-03-01T15:55:31;14.00;45.60
35613;DHT22;22054;51.646;7.078;2023-03-01T15:58:19;13.10;46.20
35613;DHT22;22054;51.646;7.078;2023-03-01T16:00:47;12.20;48.10
35613;DHT22;22054;51.646;7.078;2023-03-01T16:03:14;11.60;49.70
35613;DHT22;22054;51.646;7.078;2023-03-01T16:05:47;11.80;50.70
35613;DHT22;22054;51.646;7.078;2023-03-01T16:08:15;12.60;49.10
35613;DHT22;22054;51.646;7.078;2023-03-01T16:10:42;13.50;47.70
35613;DHT22;22054;51.646;7.078;2023-03-01T16:13:11;13.60;46.60
35613;DHT22;22054;51.646;7.078;2023-03-01T16:15:38;12.80;47.00
35613;DHT22;22054;51.646;7.078;2023-03-01T16:18:05;12.40;49.10
35613;DHT22;22054;51.646;7.078;2023-03-01T16:20:31;12.60;48.70
35613;DHT22;22054;51.646;7.078;2023-03-01T16:23:03;13.10;48.80
35613;DHT22;22054;51.646;7.078;2023-03-01T16:25:31;13.90;47.20
35613;DHT22;22054;51.646;7.078;2023-03-01T16:27:58;14.60;45.40
35613;DHT22;22054;51.646;7.078;2023-03-01T16:30:26;14.70;45.10
35613;DHT22;22054;51.646;7.078;2023-03-01T16:32:52;14.60;43.30
35613;DHT22;22054;51.646;7.078;2023-03-01T16:35:20;14.70;44.00
35613;DHT22;22054;51.646;7.078;2023-03-01T16:37:46;14.50;43.80
35613;DHT22;22054;51.646;7.078;2023-03-01T16:40:18;14.30;44.70
35613;DHT22;22054;51.646;7.078;2023-03-01T16:42:52;13.60;44.90
35613;DHT22;22054;51.646;7.078;2023-03-01T16:45:20;12.50;46.70
35613;DHT22;22054;51.646;7.078;2023-03-01T16:47:46;11.00;49.00
35613;DHT22;22054;51.646;7.078;2023-03-01T16:50:13;10.30;52.10
35613;DHT22;22054;51.646;7.078;2023-03-01T16:52:38;9.50;53.60
35613;DHT22;22054;51.646;7.078;2023-03-01T16:55:06;8.90;56.30
35613;DHT22;22054;51.646;7.078;2023-03-01T16:57:35;8.40;58.60
35613;DHT22;22054;51.646;7.078;2023-03-01T17:00:04;7.90;59.70
35613;DHT22;22054;51.646;7.078;2023-03-01T17:02:36;7.60;64.80
35613;DHT22;22054;51.646;7.078;2023-03-01T17:05:02;7.30;65.60
35613;DHT22;22054;51.646;7.078;2023-03-01T17:07:29;7.10;67.00
35613;DHT22;22054;51.646;7.078;2023-03-01T17:09:59;6.90;70.80
35613;DHT22;22054;51.646;7.078;2023-03-01T17:12:29;6.70;1.00
35613;DHT22;22054;51.646;7.078;2023-03-01T17:14:55;6.50;24.80
35613;DHT22;22054;51.646;7.078;2023-03-01T17:17:21;6.30;99.90
35613;DHT22;22054;51.646;7.078;2023-03-01T17:19:47;6.30;1.00
35613;DHT22;22054;51.646;7.078;2023-03-01T17:22:12;6.20;1.00
35613;DHT22;22054;51.646;7.078;2023-03-01T17:24:39;6.00;1.00
35613;DHT22;22054;51.646;7.078;2023-03-01T17:27:06;6.00;1.00
35613;DHT22;22054;51.646;7.078;2023-03-01T17:29:33;6.00;1.00
35613;DHT22;22054;51.646;7.078;2023-03-01T17:31:59;5.90;1.00
35613;DHT22;22054;51.646;7.078;2023-03-01T17:34:25;5.70;1.00
35613;DHT22;22054;51.646;7.078;2023-03-01T17:36:51;5.60;96.50
35613;DHT22;22054;51.646;7.078;2023-03-01T17:39:18;5.50;99.90
35613;DHT22;22054;51.646;7.078;2023-03-01T17:41:51;5.30;99.90
35613;DHT22;22054;51.646;7.078;2023-03-01T17:44:17;5.20;99.90
35613;DHT22;22054;51.646;7.078;2023-03-01T17:46:42;5.20;99.90
35613;DHT22;22054;51.646;7.078;2023-03-01T17:49:08;5.10;99.90